Time;durP1;ratioP1;P1;durP2;ratioP2;P2;SDS_P1;SDS_P2;PMS_P1;PMS_P2;Temp;Humidity;BMP_temperature;BMP_pressure;BME280_temperature;BME280_humidity;BME280_pressure;Samples;Min_cycle;Max_cycle;Signal;HPM_P1;HPM_P2
2023/01/16 00:01:44;;;;;;;;;;;;;;;18.55;46.02;99381.34;5152555;27;19929;-53
2023/01/16 00:04:10;;;;;;;;;;;;;;;18.54;45.82;99383.28;5133939;27;20362;-52
2023/01/16 00:06:35;;;;;;;;;;;;;;;18.54;46.09;99372.28;5152728;27;19931;-53
2023/01/16 00:09:02;;;;;;;;;;;;;;;18.54;45.84;99371.47;5152342;27;19942;-52
2023/01/16 00:11:27;;;;;;;;;;;;;;;18.55;46.04;99364.81;5152832;27;20000;-53
2023/01/16 00:13:53;;;;;;;;;;;;;;;18.54;45.82;99363.19;5153036;27;19927;-52
2023/01/16 00:16:20;;;;;;;;;;;;;;;18.54;46.02;99358.47;5152997;27;20374;-52
2023/01/16 00:18:46;;;;;;;;;;;;;;;18.54;45.84;99354.91;5148807;27;19926;-53
2023/01/16 00:21:12;;;;;;;;;;;;;;;18.54;45.87;99350.22;5152530;27;19948;-52
2023/01/16 00:23:37;;;;;;;;;;;;;;;18.54;45.85;99343.88;5152100;27;19927;-54
2023/01/16 00:26:05;;;;;;;;;;;;;;;18.54;45.78;99339.19;5151213;27;19930;-53
2023/01/16 00:28:32;;;;;;;;;;;;;;;18.54;45.69;99333.66;5146566;27;19923;-53
2023/01/16 00:30:57;;;;;;;;;;;;;;;18.54;45.83;99330.91;5132946;27;20286;-52
2023/01/16 00:33:23;;;;;;;;;;;;;;;18.54;45.87;99333.66;5113257;28;19924;-51
2023/01/16 00:35:49;;;;;;;;;;;;;;;18.54;46.00;99330.91;5131724;28;19934;-53
2023/01/16 00:38:14;;;;;;;;;;;;;;;18.54;45.83;99333.66;5131293;27;20395;-52
2023/01/16 00:40:40;;;;;;;;;;;;;;;18.55;45.78;99324.25;5131514;27;19928;-53
2023/01/16 00:43:05;;;;;;;;;;;;;;;18.54;45.86;99317.13;5131665;28;20295;-53
2023/01/16 00:45:31;;;;;;;;;;;;;;;18.54;46.05;99308.84;5131601;28;19972;-53
2023/01/16 00:47:58;;;;;;;;;;;;;;;18.54;46.11;99308.06;5131556;27;19927;-52
2023/01/16 00:50:24;;;;;;;;;;;;;;;18.54;45.85;99303.34;5113188;28;20250;-54
2023/01/16 00:52:49;;;;;;;;;;;;;;;18.54;45.78;99313.56;5131251;28;20332;-53
2023/01/16 00:55:15;;;;;;;;;;;;;;;18.54;45.99;99299.78;5130713;27;20348;-53
2023/01/16 00:57:40;;;;;;;;;;;;;;;18.55;46.11;99293.94;5130827;27;19931;-53
2023/01/16 01:00:06;;;;;;;;;;;;;;;18.55;45.95;99288.44;5135917;27;19954;-53
2023/01/16 01:02:32;;;;;;;;;;;;;;;18.55;46.05;99291.19;5131517;28;19930;-52
2023/01/16 01:04:57;;;;;;;;;;;;;;;18.53;46.02;99276.91;5130162;27;19928;-53
2023/01/16 01:07:23;;;;;;;;;;;;;;;18.54;45.87;99278.53;5131010;27;19996;-53
2023/01/16 01:09:48;;;;;;;;;;;;;;;18.55;45.96;99276.59;5112526;28;19958;-53
2023/01/16 01:12:14;;;;;;;;;;;;;;;18.54;45.82;99270.25;5130785;28;19923;-52
2023/01/16 01:14:40;;;;;;;;;;;;;;;18.54;46.14;99256.47;5130899;28;20288;-53
2023/01/16 01:17:05;;;;;;;;;;;;;;;18.54;45.84;99253.72;5132208;27;19924;-53
2023/01/16 01:19:31;;;;;;;;;;;;;;;18.54;46.01;99256.47;5132775;27;20390;-53
2023/01/16 01:21:56;;;;;;;;;;;;;;;18.54;46.07;99248.22;5151081;27;19929;-54
2023/01/16 01:24:22;;;;;;;;;;;;;;;18.55;46.07;99241.56;5151301;27;19930;-53
2023/01/16 01:26:47;;;;;;;;;;;;;;;18.53;46.02;99238.31;5151747;27;19950;-52
2023/01/16 01:29:13;;;;;;;;;;;;;;;18.55;45.83;99235.22;5150753;27;19995;-54
2023/01/16 01:31:38;;;;;;;;;;;;;;;18.54;45.79;99233.63;5151703;27;19935;-53
2023/01/16 01:34:04;;;;;;;;;;;;;;;18.54;46.10;99230.88;5151745;27;19923;-52
2023/01/16 01:36:30;;;;;;;;;;;;;;;18.54;45.81;99223.41;5151461;27;20306;-53
2023/01/16 01:38:55;;;;;;;;;;;;;;;18.54;45.82;99217.88;5151238;27;19923;-53
2023/01/16 01:41:21;;;;;;;;;;;;;;;18.55;46.07;99215.94;5132972;27;20003;-53
2023/01/16 01:43:48;;;;;;;;;;;;;;;18.54;45.85;99208.81;5151079;27;20323;-53
2023/01/16 01:46:22;;;;;;;;;;;;;;;18.55;46.08;99204.91;5151204;27;19979;-53
2023/01/16 01:48:48;;;;;;;;;;;;;;;18.55;46.01;99210.44;5151314;27;19935;-54
2023/01/16 01:51:16;;;;;;;;;;;;;;;18.54;46.00;99204.09;5132739;27;19923;-52
2023/01/16 01:53:43;;;;;;;;;;;;;;;18.54;46.03;99201.34;5151073;27;19962;-53
2023/01/16 01:56:11;;;;;;;;;;;;;;;18.54;46.01;99190.31;5151323;27;19946;-53
2023/01/16 01:58:37;;;;;;;;;;;;;;;18.54;45.82;99190.31;5150727;27;19971;-53
2023/01/16 02:01:02;;;;;;;;;;;;;;;18.54;46.01;99181.25;5150945;27;19923;-53
2023/01/16 02:03:31;;;;;;;;;;;;;;;18.54;46.08;99178.47;5151096;27;19946;-53
2023/01/16 02:05:57;;;;;;;;;;;;;;;18.54;46.05;99175.72;5151055;27;19934;-53
2023/01/16 02:08:24;;;;;;;;;;;;;;;18.54;45.91;99160.00;5150862;27;20292;-53
2023/01/16 02:10:51;;;;;;;;;;;;;;;18.54;45.95;99165.50;5132355;27;20420;-53
2023/01/16 02:13:17;;;;;;;;;;;;;;;18.54;46.05;99157.25;5150959;27;19924;-53
2023/01/16 02:19:15;;;;;;;;;;;;;;;18.55;46.02;99155.28;5150669;27;20458;-53
2023/01/16 02:21:34;;;;;;;;;;;;;;;18.55;46.08;99133.25;5114786;28;19931;-53
2023/01/16 02:24:19;;;;;;;;;;;;;;;18.55;46.09;99128.53;5146992;27;19934;-53
2023/01/16 02:26:51;;;;;;;;;;;;;;;18.54;45.83;99126.91;5149419;27;19977;-53
2023/01/16 02:29:36;;;;;;;;;;;;;;;18.54;46.04;99118.63;5124432;27;19927;-53
2023/01/16 02:32:06;;;;;;;;;;;;;;;18.55;46.09;99111.19;5114724;28;19957;-54
2023/01/16 02:34:36;;;;;;;;;;;;;;;18.54;45.84;99102.09;5129989;28;19923;-53
2023/01/16 02:37:10;;;;;;;;;;;;;;;18.55;46.07;99091.88;5130092;28;20367;-54
2023/01/16 02:39:45;;;;;;;;;;;;;;;18.55;46.12;99094.63;5129480;27;19976;-53
2023/01/16 02:42:30;;;;;;;;;;;;;;;18.55;46.19;99094.63;5129892;28;19923;-53
2023/01/16 02:44:59;;;;;;;;;;;;;;;18.54;46.10;99085.56;5114369;28;19974;-52
2023/01/16 02:47:36;;;;;;;;;;;;;;;18.55;46.16;99080.84;5111082;27;20293;-53
2023/01/16 02:50:08;;;;;;;;;;;;;;;18.55;45.95;99075.34;5111077;28;20035;-53
2023/01/16 02:52:37;;;;;;;;;;;;;;;18.55;45.89;99067.88;5129802;28;19927;-53
2023/01/16 02:55:04;;;;;;;;;;;;;;;18.54;46.16;99066.25;5129711;27;19923;-52
2023/01/16 02:57:31;;;;;;;;;;;;;;;18.54;45.91;99058.00;5110963;27;19974;-53
2023/01/16 02:59:56;;;;;;;;;;;;;;;18.55;46.02;99050.53;5134830;27;19996;-53
2023/01/16 03:02:22;;;;;;;;;;;;;;;18.54;46.18;99035.13;5129666;28;20321;-53
2023/01/16 03:04:48;;;;;;;;;;;;;;;18.54;46.20;99033.19;5129533;28;19931;-54
2023/01/16 03:07:34;;;;;;;;;;;;;;;18.54;46.07;99024.91;5129765;28;19923;-54
2023/01/16 03:10:19;;;;;;;;;;;;;;;18.54;46.07;98997.34;5125031;27;19970;-53
2023/01/16 03:12:52;;;;;;;;;;;;;;;18.54;45.92;98991.84;5134747;27;19954;-53
2023/01/16 03:15:26;;;;;;;;;;;;;;;18.55;46.18;98987.13;5150230;27;19945;-51
2023/01/16 03:18:04;;;;;;;;;;;;;;;18.54;46.17;98986.31;5149150;27;20020;-53
2023/01/16 03:20:32;;;;;;;;;;;;;;;18.54;45.99;98980.81;5129092;27;19939;-53
2023/01/16 03:23:14;;;;;;;;;;;;;;;18.55;46.13;98968.63;5128666;28;19992;-53
2023/01/16 03:25:44;;;;;;;;;;;;;;;18.55;45.92;98962.31;5129663;27;19975;-53
2023/01/16 03:28:11;;;;;;;;;;;;;;;18.55;45.93;98956.81;5152218;27;19930;-52
2023/01/16 03:30:39;;;;;;;;;;;;;;;18.55;46.18;98945.78;5153468;27;19966;-52
2023/01/16 03:33:07;;;;;;;;;;;;;;;18.54;46.21;98947.72;5153931;27;19930;-53
2023/01/16 03:35:34;;;;;;;;;;;;;;;18.54;46.01;98944.97;5153187;27;19977;-53
2023/01/16 03:38:07;;;;;;;;;;;;;;;18.55;46.10;98943.03;5153335;27;19931;-53
2023/01/16 03:40:34;;;;;;;;;;;;;;;18.55;46.13;98932.00;5153348;27;19958;-53
2023/01/16 03:43:19;;;;;;;;;;;;;;;18.55;46.13;98926.47;5153348;27;20415;-52
2023/01/16 03:45:49;;;;;;;;;;;;;;;18.54;46.13;98922.91;5137796;27;19923;-53
2023/01/16 03:48:24;;;;;;;;;;;;;;;18.55;46.02;98920.97;5153264;27;19923;-52
2023/01/16 03:50:52;;;;;;;;;;;;;;;18.55;46.12;98912.69;5134600;27;19927;-52
2023/01/16 03:53:18;;;;;;;;;;;;;;;18.54;46.00;98892.59;5153306;27;19927;-53
2023/01/16 03:55:51;;;;;;;;;;;;;;;18.55;46.15;98894.22;5152357;27;19979;-53
2023/01/16 03:58:19;;;;;;;;;;;;;;;18.55;46.02;98887.91;5153092;27;19923;-53
2023/01/16 04:00:48;;;;;;;;;;;;;;;18.55;46.07;98880.44;5152363;27;20015;-52
2023/01/16 04:03:16;;;;;;;;;;;;;;;18.56;46.18;98881.22;5134447;27;19923;-52
2023/01/16 04:05:46;;;;;;;;;;;;;;;18.55;46.05;98871.34;5134254;27;19930;-53
2023/01/16 04:08:16;;;;;;;;;;;;;;;18.54;46.12;98859.53;5152888;27;19924;-53
2023/01/16 04:10:43;;;;;;;;;;;;;;;18.54;46.15;98844.94;5152410;27;20025;-53
2023/01/16 04:13:09;;;;;;;;;;;;;;;18.53;46.14;98835.84;5153047;27;19954;-54
2023/01/16 04:15:35;;;;;;;;;;;;;;;18.55;46.04;98830.00;5134267;27;19923;-52
2023/01/16 04:18:01;;;;;;;;;;;;;;;18.55;46.02;98816.22;5152640;27;20272;-51
2023/01/16 04:20:27;;;;;;;;;;;;;;;18.55;45.93;98813.47;5152761;27;19930;-53
2023/01/16 04:22:53;;;;;;;;;;;;;;;18.55;46.31;98805.19;5152719;27;19923;-50
2023/01/16 04:25:18;;;;;;;;;;;;;;;18.55;46.04;98796.94;5152159;27;19934;-52
2023/01/16 04:27:44;;;;;;;;;;;;;;;18.55;46.04;98794.16;5151699;27;19979;-51
2023/01/16 04:30:10;;;;;;;;;;;;;;;18.55;46.01;98774.88;5151974;27;19937;-53
2023/01/16 04:32:35;;;;;;;;;;;;;;;18.55;46.24;98758.34;5134053;27;20324;-53
2023/01/16 04:35:01;;;;;;;;;;;;;;;18.54;45.93;98757.53;5152580;27;19934;-52
2023/01/16 04:37:26;;;;;;;;;;;;;;;18.55;46.13;98750.88;5152587;27;19923;-52
2023/01/16 04:39:52;;;;;;;;;;;;;;;18.54;45.92;98741.00;5152194;27;19930;-53
2023/01/16 04:42:18;;;;;;;;;;;;;;;18.54;46.18;98735.47;5152495;27;19927;-53
2023/01/16 04:44:43;;;;;;;;;;;;;;;18.55;46.25;98725.25;5152480;27;19923;-54
2023/01/16 04:47:09;;;;;;;;;;;;;;;18.55;46.26;98719.75;5152636;27;20080;-53
2023/01/16 04:49:34;;;;;;;;;;;;;;;18.55;46.15;98704.00;5133595;27;19978;-53
2023/01/16 04:52:00;;;;;;;;;;;;;;;18.55;46.13;98704.00;5152447;27;20162;-53
2023/01/16 04:54:26;;;;;;;;;;;;;;;18.55;46.30;98695.75;5151937;27;19923;-53
2023/01/16 04:56:51;;;;;;;;;;;;;;;18.55;46.29;98683.91;5152116;27;19923;-53
2023/01/16 04:59:18;;;;;;;;;;;;;;;18.54;46.00;98676.78;5151468;27;19927;-53
2023/01/16 05:01:43;;;;;;;;;;;;;;;18.54;46.13;98668.53;5133238;27;20020;-51
2023/01/16 05:04:09;;;;;;;;;;;;;;;18.55;45.90;98672.88;5133410;27;19927;-53
2023/01/16 05:06:35;;;;;;;;;;;;;;;18.54;46.12;98654.75;5151896;27;19927;-53
2023/01/16 05:09:01;;;;;;;;;;;;;;;18.55;46.01;98639.81;5133269;27;20001;-53
2023/01/16 05:11:26;;;;;;;;;;;;;;;18.54;46.22;98636.25;5133139;27;19923;-53
2023/01/16 05:13:52;;;;;;;;;;;;;;;18.55;46.26;98631.53;5151969;27;20370;-53
2023/01/16 05:16:17;;;;;;;;;;;;;;;18.55;46.08;98620.50;5135135;27;19938;-52
2023/01/16 05:18:43;;;;;;;;;;;;;;;18.55;46.08;98615.00;5149910;27;19927;-53
2023/01/16 05:21:09;;;;;;;;;;;;;;;18.54;46.27;98611.44;5112736;28;19927;-53
2023/01/16 05:23:35;;;;;;;;;;;;;;;18.55;46.12;98606.72;5131036;28;20329;-52
2023/01/16 05:26:01;;;;;;;;;;;;;;;18.55;46.09;98601.22;5131074;28;19924;-53
2023/01/16 05:28:26;;;;;;;;;;;;;;;18.55;46.09;98595.69;5124847;27;19976;-53
2023/01/16 05:30:52;;;;;;;;;;;;;;;18.55;46.17;98582.72;5117547;27;19927;-55
2023/01/16 05:33:18;;;;;;;;;;;;;;;18.54;46.20;98575.59;5130635;28;19976;-53
2023/01/16 05:35:44;;;;;;;;;;;;;;;18.55;46.28;98565.38;5130628;28;19927;-52
2023/01/16 05:38:10;;;;;;;;;;;;;;;18.55;46.13;98551.59;5130947;27;19928;-52
2023/01/16 05:40:35;;;;;;;;;;;;;;;18.55;45.99;98549.66;5130707;27;19923;-53
2023/01/16 05:43:01;;;;;;;;;;;;;;;18.54;46.12;98542.53;5131104;28;19929;-53
2023/01/16 05:45:26;;;;;;;;;;;;;;;18.54;46.14;98542.53;5130863;28;19996;-53
2023/01/16 05:47:55;;;;;;;;;;;;;;;18.54;46.21;98531.50;5130955;27;19932;-53
2023/01/16 05:50:21;;;;;;;;;;;;;;;18.55;46.42;98538.63;5111684;28;20286;-53
2023/01/16 05:52:46;;;;;;;;;;;;;;;18.54;46.11;98531.50;5130780;28;19930;-52
2023/01/16 05:55:12;;;;;;;;;;;;;;;18.55;46.08;98518.53;5130292;27;20416;-53
2023/01/16 05:57:37;;;;;;;;;;;;;;;18.55;46.29;98513.00;5130253;27;19931;-52
2023/01/16 06:00:03;;;;;;;;;;;;;;;18.55;46.38;98505.56;5135922;27;19924;-53
2023/01/16 06:02:29;;;;;;;;;;;;;;;18.54;46.39;98498.44;5111814;28;20412;-53
2023/01/16 06:04:55;;;;;;;;;;;;;;;18.54;46.31;98495.66;5130303;28;19932;-53
2023/01/16 06:07:21;;;;;;;;;;;;;;;18.55;46.38;98488.22;5130207;28;20367;-52
2023/01/16 06:09:46;;;;;;;;;;;;;;;18.55;46.27;98482.69;5130157;27;19923;-53
2023/01/16 06:12:15;;;;;;;;;;;;;;;18.54;46.25;98487.41;5130391;28;19930;-53
2023/01/16 06:14:41;;;;;;;;;;;;;;;18.55;46.31;98475.22;5130433;28;20324;-53
2023/01/16 06:17:06;;;;;;;;;;;;;;;18.54;46.05;98473.63;5119867;27;19968;-54
2023/01/16 06:19:32;;;;;;;;;;;;;;;18.54;46.39;98468.13;5144038;27;19937;-52
2023/01/16 06:21:58;;;;;;;;;;;;;;;18.55;46.48;98455.13;5111499;28;19927;-52
2023/01/16 06:24:23;;;;;;;;;;;;;;;18.56;46.20;98448.47;5129971;28;19927;-52
2023/01/16 06:26:49;;;;;;;;;;;;;;;18.55;46.21;98431.13;5129856;28;19938;-53
2023/01/16 06:29:14;;;;;;;;;;;;;;;18.55;46.08;98413.78;5144930;27;19927;-52
2023/01/16 06:31:40;;;;;;;;;;;;;;;18.54;46.29;98401.97;5147580;27;19931;-53
2023/01/16 06:34:06;;;;;;;;;;;;;;;18.55;46.17;98408.28;5147492;27;19927;-53
2023/01/16 06:36:32;;;;;;;;;;;;;;;18.54;46.31;98399.19;5117841;28;19923;-53
2023/01/16 06:38:57;;;;;;;;;;;;;;;18.54;46.10;98393.69;5141917;27;19931;-52
2023/01/16 06:41:23;;;;;;;;;;;;;;;18.54;46.39;98379.09;5150081;27;19991;-53
2023/01/16 06:43:48;;;;;;;;;;;;;;;18.54;46.27;98382.66;5135098;27;19927;-54
2023/01/16 06:46:14;;;;;;;;;;;;;;;18.55;46.10;98387.03;5127468;27;20597;-53
2023/01/16 06:48:41;;;;;;;;;;;;;;;18.55;46.21;98377.97;5138700;27;19930;-53
2023/01/16 06:51:07;;;;;;;;;;;;;;;18.54;46.06;98357.06;5132418;27;19948;-53
2023/01/16 06:53:32;;;;;;;;;;;;;;;18.54;46.18;98352.34;5133905;27;19971;-53
2023/01/16 06:55:58;;;;;;;;;;;;;;;18.55;46.31;98339.38;5139187;27;19927;-52
2023/01/16 06:58:24;;;;;;;;;;;;;;;18.54;46.14;98335.81;5134115;27;19938;-53
2023/01/16 07:00:50;;;;;;;;;;;;;;;18.54;46.23;98337.75;5126801;27;19927;-54
2023/01/16 07:03:16;;;;;;;;;;;;;;;18.53;46.08;98339.72;5129401;27;19939;-54
2023/01/16 07:05:43;;;;;;;;;;;;;;;18.54;46.19;98335.00;5139942;27;19923;-53
2023/01/16 07:08:08;;;;;;;;;;;;;;;18.54;46.08;98308.25;5137417;27;20064;-53
2023/01/16 07:10:34;;;;;;;;;;;;;;;18.53;46.20;98301.13;5134929;27;19927;-53
2023/01/16 07:13:00;;;;;;;;;;;;;;;18.53;46.10;98298.38;5147903;27;20278;-53
2023/01/16 07:23:44;;;;;;;;;;;;;;;18.54;46.31;98260.59;5126908;27;19959;-53
2023/01/16 07:26:10;;;;;;;;;;;;;;;18.38;42.17;98259.63;5128010;27;19962;-59
2023/01/16 07:28:35;;;;;;;;;;;;;;;18.14;42.56;98236.38;5134374;27;20335;-55
2023/01/16 07:31:03;;;;;;;;;;;;;;;18.23;42.76;98228.03;5148037;27;19934;-56
2023/01/16 07:33:29;;;;;;;;;;;;;;;18.11;43.31;98226.03;5134601;27;21913;-53
2023/01/16 07:35:54;;;;;;;;;;;;;;;18.37;45.05;98211.97;5131971;27;19923;-53
2023/01/16 07:38:20;;;;;;;;;;;;;;;18.49;44.76;98194.69;5133629;27;19942;-55
2023/01/16 07:40:45;;;;;;;;;;;;;;;18.49;43.53;98186.41;5111769;28;20516;-55
2023/01/16 07:43:11;;;;;;;;;;;;;;;18.57;44.96;98177.25;5132004;27;19930;-55
2023/01/16 07:45:36;;;;;;;;;;;;;;;18.57;45.15;98174.47;5136181;27;20604;-57
2023/01/16 07:48:02;;;;;;;;;;;;;;;18.57;45.40;98166.22;5144204;27;19939;-57
2023/01/16 07:50:28;;;;;;;;;;;;;;;18.59;45.45;98163.91;5135260;27;19923;-55
2023/01/16 07:52:53;;;;;;;;;;;;;;;18.59;45.63;98152.88;5133090;27;19993;-56
2023/01/16 07:55:19;;;;;;;;;;;;;;;18.61;45.66;98141.50;5132490;27;19935;-58
2023/01/16 07:57:44;;;;;;;;;;;;;;;18.44;42.29;98137.84;5141383;27;19931;-57
2023/01/16 08:00:10;;;;;;;;;;;;;;;18.56;42.98;98131.50;5130201;27;19931;-57
2023/01/16 08:02:36;;;;;;;;;;;;;;;18.62;43.55;98124.63;5119236;27;19927;-56
2023/01/16 08:05:02;;;;;;;;;;;;;;;18.65;44.39;98129.47;5127850;27;20708;-55
2023/01/16 08:07:28;;;;;;;;;;;;;;;18.64;44.69;98110.50;5121386;27;19928;-57
2023/01/16 08:09:53;;;;;;;;;;;;;;;18.64;44.84;98107.75;5130121;27;19927;-55
2023/01/16 08:12:19;;;;;;;;;;;;;;;18.65;45.08;98103.81;5134156;27;20318;-55
2023/01/16 08:14:44;;;;;;;;;;;;;;;18.65;44.93;98103.81;5137243;27;19930;-55
2023/01/16 08:17:10;;;;;;;;;;;;;;;18.64;45.08;98086.50;5137078;27;19935;-56
2023/01/16 08:19:35;;;;;;;;;;;;;;;18.66;45.27;98075.13;5138764;27;19950;-55
2023/01/16 08:22:02;;;;;;;;;;;;;;;18.66;45.42;98078.69;5136270;27;19981;-56
2023/01/16 08:24:28;;;;;;;;;;;;;;;18.66;45.39;98075.13;5121491;27;20584;-56
2023/01/16 08:26:53;;;;;;;;;;;;;;;18.68;45.40;98067.31;5127614;27;20401;-56
2023/01/16 08:29:19;;;;;;;;;;;;;;;18.68;45.46;98051.56;5120561;27;19931;-55
2023/01/16 08:31:45;;;;;;;;;;;;;;;18.68;45.54;98061.78;5140593;27;19927;-56
2023/01/16 08:34:10;;;;;;;;;;;;;;;18.69;45.53;98052.38;5136803;27;19934;-54
2023/01/16 08:36:36;;;;;;;;;;;;;;;18.69;45.20;98052.38;5138419;27;20371;-55
2023/01/16 08:39:02;;;;;;;;;;;;;;;18.70;45.38;98027.25;5148846;27;19927;-54
2023/01/16 08:52:33;;;;;;;;;;;;;;;18.72;45.62;98015.88;5120241;27;19962;-55
2023/01/16 08:54:59;;;;;;;;;;;;;;;18.74;45.62;98019.09;5125966;27;20221;-56
2023/01/16 08:57:25;;;;;;;;;;;;;;;18.72;45.68;98013.13;5136125;27;19934;-54
2023/01/16 08:59:51;;;;;;;;;;;;;;;18.81;44.15;98008.28;5119248;27;20359;-55
2023/01/16 09:02:16;;;;;;;;;;;;;;;18.81;45.29;98000.00;5136343;27;19934;-55
2023/01/16 09:04:44;;;;;;;;;;;;;;;18.79;45.39;97997.59;5132830;27;19927;-54
2023/01/16 09:07:09;;;;;;;;;;;;;;;18.77;45.40;97999.88;5144806;27;19931;-55
2023/01/16 09:09:35;;;;;;;;;;;;;;;18.77;45.30;98001.84;5127739;27;19934;-55
2023/01/16 09:14:46;;;;;;;;;;;;;;;18.77;45.57;97999.09;5110770;27;19982;-55
2023/01/16 09:17:11;;;;;;;;;;;;;;;18.77;45.37;97988.06;5126839;27;19927;-56
2023/01/16 09:19:37;;;;;;;;;;;;;;;18.77;45.37;97979.78;5131021;27;20529;-55
2023/01/16 09:22:05;;;;;;;;;;;;;;;18.77;45.37;97974.28;5133831;27;19934;-55
2023/01/16 09:24:31;;;;;;;;;;;;;;;18.77;45.50;97977.03;5126541;27;20011;-56
2023/01/16 09:26:57;;;;;;;;;;;;;;;18.78;45.66;97960.16;5129032;27;19999;-55
2023/01/16 09:29:22;;;;;;;;;;;;;;;18.79;45.65;97963.72;5128365;27;21358;-55
2023/01/16 09:31:48;;;;;;;;;;;;;;;18.78;45.59;97965.69;5132459;27;19930;-56
2023/01/16 09:34:14;;;;;;;;;;;;;;;18.78;45.34;97959.34;5133457;27;20303;-55
2023/01/16 09:36:39;;;;;;;;;;;;;;;18.80;45.49;97951.53;5100955;27;19931;-54
2023/01/16 09:39:05;;;;;;;;;;;;;;;18.80;45.45;97965.31;5097884;27;19934;-56
2023/01/16 09:44:17;;;;;;;;;;;;;;;18.81;45.71;97953.13;5105856;27;19975;-55
2023/01/16 09:46:45;;;;;;;;;;;;;;;18.81;45.37;97947.63;5133595;27;20328;-56
2023/01/16 09:49:27;;;;;;;;;;;;;;;18.81;45.70;97939.34;5131262;27;19966;-55
2023/01/16 10:00:20;;;;;;;;;;;;;;;18.83;45.62;97939.81;5112133;27;19942;-53
2023/01/16 10:02:46;;;;;;;;;;;;;;;18.83;45.56;97926.03;5129183;27;20883;-56
2023/01/16 10:05:13;;;;;;;;;;;;;;;18.84;45.69;97924.06;5128292;27;20327;-55
2023/01/16 10:07:57;;;;;;;;;;;;;;;18.83;45.56;97923.28;5112658;27;19923;-54
2023/01/16 10:10:40;;;;;;;;;;;;;;;18.84;45.70;97915.78;5134586;27;19966;-55
2023/01/16 10:13:26;;;;;;;;;;;;;;;18.84;45.73;97904.78;5124672;27;19927;-54
2023/01/16 10:16:12;;;;;;;;;;;;;;;18.84;45.58;97911.09;5103114;27;20402;-56
2023/01/16 10:18:54;;;;;;;;;;;;;;;18.84;45.76;97893.75;5114464;27;19927;-56
2023/01/16 10:21:40;;;;;;;;;;;;;;;18.84;45.75;97878.00;5133906;27;19974;-56
2023/01/16 10:24:11;;;;;;;;;;;;;;;18.83;45.63;97870.88;5096915;27;19927;-55
2023/01/16 10:26:42;;;;;;;;;;;;;;;18.82;45.52;97866.50;5100164;27;20395;-55
2023/01/16 10:29:28;;;;;;;;;;;;;;;18.87;45.83;97854.41;5137774;27;19955;-56
2023/01/16 10:32:03;;;;;;;;;;;;;;;18.87;45.77;97857.16;5114477;27;19931;-56
2023/01/16 10:34:31;;;;;;;;;;;;;;;18.85;45.81;97853.97;5131710;27;19932;-56
2023/01/16 10:36:57;;;;;;;;;;;;;;;18.85;45.50;97853.97;5133107;27;19962;-56
2023/01/16 10:39:23;;;;;;;;;;;;;;;18.84;45.44;97849.63;5122790;27;20034;-56
2023/01/16 10:50:12;;;;;;;;;;;;;;;18.83;45.74;97824.00;5106946;27;20535;-56
2023/01/16 10:52:37;;;;;;;;;;;;;;;18.83;45.74;97823.22;5138790;27;19927;-56
2023/01/16 10:55:03;;;;;;;;;;;;;;;18.82;45.64;97825.16;5141000;27;19966;-57
2023/01/16 10:57:29;;;;;;;;;;;;;;;18.82;45.68;97822.38;5139096;27;19927;-55
2023/01/16 10:59:57;;;;;;;;;;;;;;;18.81;45.64;97812.53;5123759;27;20401;-57
2023/01/16 11:04:57;;;;;;;;;;;;;;;18.82;45.79;97799.53;5170273;27;20117;-53
2023/01/16 11:07:22;;;;;;;;;;;;;;;18.83;45.73;97787.38;5152463;27;20403;-53
2023/01/16 11:09:48;;;;;;;;;;;;;;;18.82;45.88;97792.06;5128296;27;19939;-54
2023/01/16 11:20:39;;;;;;;;;;;;;;;18.86;45.80;97754.34;5130502;27;20151;-53
2023/01/16 11:23:13;;;;;;;;;;;;;;;18.85;45.60;97752.75;5159237;27;19979;-53
2023/01/16 11:25:39;;;;;;;;;;;;;;;18.85;45.49;97747.25;5156259;27;20027;-54
2023/01/16 11:28:06;;;;;;;;;;;;;;;18.86;45.68;97750.81;5153407;27;19939;-55
2023/01/16 11:30:32;;;;;;;;;;;;;;;18.87;45.43;97741.38;5161682;27;19927;-54
2023/01/16 11:32:58;;;;;;;;;;;;;;;18.88;45.72;97740.22;5162961;27;19927;-54
2023/01/16 11:35:25;;;;;;;;;;;;;;;18.87;45.78;97731.16;5141876;27;19938;-55
2023/01/16 11:37:51;;;;;;;;;;;;;;;18.87;45.73;97728.41;5138461;27;19935;-54
2023/01/16 11:40:24;;;;;;;;;;;;;;;18.88;45.46;97718.19;5148020;27;19931;-54
2023/01/16 11:46:17;;;;;;;;;;;;;;;18.85;45.81;97697.63;5140060;27;19969;-57
2023/01/16 11:48:49;;;;;;;;;;;;;;;18.86;45.42;97704.72;5132956;27;19931;-55
2023/01/16 11:51:17;;;;;;;;;;;;;;;18.86;45.74;97690.16;5157339;27;20038;-53
2023/01/16 11:53:44;;;;;;;;;;;;;;;18.85;45.74;97680.28;5126838;27;19927;-55
2023/01/16 11:56:30;;;;;;;;;;;;;;;18.85;45.76;97678.31;5133233;27;19959;-55
2023/01/16 11:59:06;;;;;;;;;;;;;;;18.85;45.41;97672.00;5121748;27;19966;-55
2023/01/16 12:04:16;;;;;;;;;;;;;;;18.86;45.51;97665.31;5156540;27;19930;-54
2023/01/16 12:06:43;;;;;;;;;;;;;;;18.85;45.40;97664.53;5152105;27;20291;-53
2023/01/16 12:09:15;;;;;;;;;;;;;;;18.85;45.45;97652.72;5135964;27;19958;-54
2023/01/16 12:14:17;;;;;;;;;;;;;;;18.84;45.18;97643.66;5152404;27;19966;-55
2023/01/16 12:14:47;;;;;;;;;;;;;;;18.85;45.49;97636.16;5125362;27;19966;-57
2023/01/16 12:17:16;;;;;;;;;;;;;;;18.84;45.35;97629.84;5156033;27;19985;-56
2023/01/16 12:20:01;;;;;;;;;;;;;;;18.85;45.43;97625.13;5151832;27;19927;-56
2023/01/16 12:22:46;;;;;;;;;;;;;;;18.85;45.64;97623.19;5137955;27;19938;-56
2023/01/16 12:25:19;;;;;;;;;;;;;;;18.83;45.22;97608.16;5143735;27;19927;-55
2023/01/16 12:27:48;;;;;;;;;;;;;;;18.85;45.23;97597.56;5153782;27;20631;-55
2023/01/16 12:30:34;;;;;;;;;;;;;;;18.86;45.54;97593.66;5149781;27;19923;-55
2023/01/16 12:33:09;;;;;;;;;;;;;;;18.85;45.43;97587.34;5133019;27;19938;-55
2023/01/16 12:35:39;;;;;;;;;;;;;;;18.84;45.36;97569.19;5149003;27;19935;-57
2023/01/16 12:38:13;;;;;;;;;;;;;;;18.83;45.45;97572.34;5157804;27;19931;-55
2023/01/16 12:40:46;;;;;;;;;;;;;;;18.84;45.67;97565.66;5156279;27;20523;-56
2023/01/16 12:43:31;;;;;;;;;;;;;;;18.84;44.59;97566.44;5152454;27;19933;-65
2023/01/16 12:46:02;;;;;;;;;;;;;;;18.84;45.17;97557.38;5143857;27;19931;-55
2023/01/16 12:48:46;;;;;;;;;;;;;;;18.86;45.32;97555.03;5145004;27;19927;-56
2023/01/16 12:51:21;;;;;;;;;;;;;;;18.86;45.37;97546.78;5152837;27;19938;-55
2023/01/16 12:53:54;;;;;;;;;;;;;;;18.84;45.17;97525.09;5156563;27;20358;-56
2023/01/16 12:59:04;;;;;;;;;;;;;;;18.85;45.15;97514.84;5162237;27;20475;-54
2023/01/16 13:01:31;;;;;;;;;;;;;;;18.85;45.53;97515.66;5126307;27;19938;-54
2023/01/16 13:04:05;;;;;;;;;;;;;;;18.85;45.48;97506.59;5142490;27;19988;-54
2023/01/16 13:06:39;;;;;;;;;;;;;;;18.85;45.43;97510.16;5137078;27;19928;-54
2023/01/16 13:09:09;;;;;;;;;;;;;;;18.86;45.69;97499.91;5138825;27;19958;-53
2023/01/16 13:14:31;;;;;;;;;;;;;;;18.86;45.35;97477.84;5110647;27;20314;-54
2023/01/16 13:17:00;;;;;;;;;;;;;;;18.86;45.53;97475.88;5134979;27;20459;-54
2023/01/16 13:19:27;;;;;;;;;;;;;;;18.88;45.55;97475.56;5136754;27;19971;-53
2023/01/16 13:24:30;;;;;;;;;;;;;;;18.87;45.22;97466.47;5178000;27;19933;-54
2023/01/16 13:26:57;;;;;;;;;;;;;;;18.89;45.49;97463.34;5143166;27;19962;-53
2023/01/16 13:29:24;;;;;;;;;;;;;;;18.88;45.31;97456.25;5156522;27;21393;-54
2023/01/16 13:31:53;;;;;;;;;;;;;;;18.88;45.22;97465.31;5153405;27;19927;-54
2023/01/16 13:34:27;;;;;;;;;;;;;;;18.86;45.38;97448.31;5139134;27;20026;-54
2023/01/16 13:37:12;;;;;;;;;;;;;;;18.88;44.62;97445.22;5151955;27;19930;-53
2023/01/16 13:39:43;;;;;;;;;;;;;;;18.88;45.55;97446.00;5125579;27;19954;-54
2023/01/16 13:42:09;;;;;;;;;;;;;;;18.72;42.52;97442.53;5150211;27;20410;-64
2023/01/16 13:47:23;;;;;;;;;;;;;;;18.11;42.82;97435.63;5135037;27;20434;-50
2023/01/16 13:49:52;;;;;;;;;;;;;;;18.14;43.07;97443.19;5150888;27;19955;-58
2023/01/16 13:52:19;;;;;;;;;;;;;;;18.17;42.75;97420.44;5142920;27;20390;-58
2023/01/16 13:54:46;;;;;;;;;;;;;;;18.06;43.32;97433.16;5158796;27;19946;-63
2023/01/16 13:57:13;;;;;;;;;;;;;;;18.03;43.61;97418.16;5143875;27;20010;-61
2023/01/16 13:59:58;;;;;;;;;;;;;;;18.07;43.21;97431.22;5160996;27;19968;-60
2023/01/16 14:02:40;;;;;;;;;;;;;;;18.39;43.48;97420.91;5149003;27;20185;-55
2023/01/16 14:05:23;;;;;;;;;;;;;;;18.60;44.26;97415.84;5142103;27;20458;-57
2023/01/16 14:10:24;;;;;;;;;;;;;;;18.74;44.14;97413.44;5181976;27;19929;-54